sensor_id;sensor_type;location;lat;lon;timestamp;pressure;altitude;pressure_sealevel;temperature;humidity
41515;BME280;27247;48.020;16.720;2023-11-21T00:03:59;99412.44;;;5.90;97.52
41515;BME280;27247;48.020;16.720;2023-11-21T00:08:11;99412.34;;;5.99;99.74
41515;BME280;27247;48.020;16.720;2023-11-21T00:12:21;99415.91;;;6.16;98.68
41515;BME280;27247;48.020;16.720;2023-11-21T00:16:32;99403.00;;;6.21;98.15
41515;BME280;27247;48.020;16.720;2023-11-21T00:20:42;99394.13;;;6.30;97.34
41515;BME280;27247;48.020;16.720;2023-11-21T00:24:52;99406.75;;;6.36;97.91
41515;BME280;27247;48.020;16.720;2023-11-21T00:29:03;99404.81;;;6.47;97.60
41515;BME280;27247;48.020;16.720;2023-11-21T00:33:13;99400.50;;;6.54;97.61
41515;BME280;27247;48.020;16.720;2023-11-21T00:37:23;99405.66;;;6.55;96.91
41515;BME280;27247;48.020;16.720;2023-11-21T00:41:35;99404.84;;;6.55;94.83
41515;BME280;27247;48.020;16.720;2023-11-21T00:45:46;99401.34;;;6.54;95.18
41515;BME280;27247;48.020;16.720;2023-11-21T00:49:59;99407.63;;;6.45;95.71
41515;BME280;27247;48.020;16.720;2023-11-21T00:54:09;99408.13;;;6.49;95.77
41515;BME280;27247;48.020;16.720;2023-11-21T00:58:19;99402.84;;;6.57;96.51
41515;BME280;27247;48.020;16.720;2023-11-21T01:02:30;99414.28;;;6.57;96.53
41515;BME280;27247;48.020;16.720;2023-11-21T01:06:40;99406.34;;;6.57;96.48
41515;BME280;27247;48.020;16.720;2023-11-21T01:10:50;99403.13;;;6.46;94.54
41515;BME280;27247;48.020;16.720;2023-11-21T01:15:01;99412.72;;;6.38;94.01
41515;BME280;27247;48.020;16.720;2023-11-21T01:19:11;99408.25;;;6.39;97.01
41515;BME280;27247;48.020;16.720;2023-11-21T01:23:21;99406.59;;;6.38;98.95
41515;BME280;27247;48.020;16.720;2023-11-21T01:27:32;99406.13;;;6.43;99.19
41515;BME280;27247;48.020;16.720;2023-11-21T01:31:43;99402.81;;;6.49;97.75
41515;BME280;27247;48.020;16.720;2023-11-21T01:35:53;99387.59;;;6.59;97.59
41515;BME280;27247;48.020;16.720;2023-11-21T01:40:05;99383.78;;;6.61;96.88
41515;BME280;27247;48.020;16.720;2023-11-21T01:44:20;99374.81;;;6.54;97.15
41515;BME280;27247;48.020;16.720;2023-11-21T01:48:30;99377.88;;;6.33;96.12
41515;BME280;27247;48.020;16.720;2023-11-21T01:52:43;99375.44;;;6.14;95.96
41515;BME280;27247;48.020;16.720;2023-11-21T01:56:54;99379.75;;;6.15;94.97
41515;BME280;27247;48.020;16.720;2023-11-21T02:01:04;99360.69;;;6.12;96.75
41515;BME280;27247;48.020;16.720;2023-11-21T02:05:16;99364.19;;;6.20;97.83
41515;BME280;27247;48.020;16.720;2023-11-21T02:09:31;99352.25;;;6.16;97.30
41515;BME280;27247;48.020;16.720;2023-11-21T02:13:43;99345.91;;;6.09;98.13
41515;BME280;27247;48.020;16.720;2023-11-21T02:17:54;99340.78;;;6.07;98.13
41515;BME280;27247;48.020;16.720;2023-11-21T02:22:05;99341.38;;;5.93;99.31
41515;BME280;27247;48.020;16.720;2023-11-21T02:26:16;99346.56;;;5.77;100.00
41515;BME280;27247;48.020;16.720;2023-11-21T02:30:27;99332.97;;;5.80;99.96
41515;BME280;27247;48.020;16.720;2023-11-21T02:34:38;99329.94;;;5.67;100.00
41515;BME280;27247;48.020;16.720;2023-11-21T02:38:49;99326.84;;;5.80;100.00
41515;BME280;27247;48.020;16.720;2023-11-21T02:42:59;99324.56;;;5.85;100.00
41515;BME280;27247;48.020;16.720;2023-11-21T02:47:10;99326.00;;;5.79;100.00
41515;BME280;27247;48.020;16.720;2023-11-21T02:51:20;99334.25;;;5.94;100.00
41515;BME280;27247;48.020;16.720;2023-11-21T02:55:30;99332.06;;;5.89;100.00
41515;BME280;27247;48.020;16.720;2023-11-21T02:59:44;99344.34;;;5.90;100.00
41515;BME280;27247;48.020;16.720;2023-11-21T03:03:55;99343.91;;;5.77;100.00
41515;BME280;27247;48.020;16.720;2023-11-21T03:08:05;99340.31;;;5.86;100.00
41515;BME280;27247;48.020;16.720;2023-11-21T03:12:16;99339.38;;;5.95;100.00
41515;BME280;27247;48.020;16.720;2023-11-21T03:16:26;99343.91;;;6.03;100.00
41515;BME280;27247;48.020;16.720;2023-11-21T03:20:36;99340.03;;;5.89;99.06
41515;BME280;27247;48.020;16.720;2023-11-21T03:24:47;99339.41;;;6.03;99.73
41515;BME280;27247;48.020;16.720;2023-11-21T03:28:57;99341.28;;;6.11;99.96
41515;BME280;27247;48.020;16.720;2023-11-21T03:33:07;99332.06;;;5.89;97.21
41515;BME280;27247;48.020;16.720;2023-11-21T03:37:18;99342.97;;;5.86;97.16
41515;BME280;27247;48.020;16.720;2023-11-21T03:41:30;99340.78;;;5.82;97.69
41515;BME280;27247;48.020;16.720;2023-11-21T03:45:41;99347.06;;;5.81;99.26
41515;BME280;27247;48.020;16.720;2023-11-21T03:49:51;99342.28;;;5.84;100.00
41515;BME280;27247;48.020;16.720;2023-11-21T03:54:01;99337.56;;;5.96;100.00
41515;BME280;27247;48.020;16.720;2023-11-21T03:58:12;99340.56;;;6.01;100.00
41515;BME280;27247;48.020;16.720;2023-11-21T04:02:22;99328.97;;;6.02;100.00
41515;BME280;27247;48.020;16.720;2023-11-21T04:06:33;99322.56;;;6.13;99.57
41515;BME280;27247;48.020;16.720;2023-11-21T04:10:43;99338.63;;;6.11;98.04
41515;BME280;27247;48.020;16.720;2023-11-21T04:14:53;99328.28;;;6.26;96.33
41515;BME280;27247;48.020;16.720;2023-11-21T04:19:03;99325.47;;;6.27;95.82
41515;BME280;27247;48.020;16.720;2023-11-21T04:23:14;99327.72;;;6.22;95.77
41515;BME280;27247;48.020;16.720;2023-11-21T04:27:25;99329.38;;;6.23;95.70
41515;BME280;27247;48.020;16.720;2023-11-21T04:31:35;99325.72;;;6.16;95.45
41515;BME280;27247;48.020;16.720;2023-11-21T04:35:46;99329.13;;;5.74;93.03
41515;BME280;27247;48.020;16.720;2023-11-21T04:39:56;99329.31;;;5.47;92.89
41515;BME280;27247;48.020;16.720;2023-11-21T04:44:06;99341.34;;;5.41;94.23
41515;BME280;27247;48.020;16.720;2023-11-21T04:48:17;99334.13;;;5.52;95.47
41515;BME280;27247;48.020;16.720;2023-11-21T04:52:27;99342.81;;;5.62;97.49
41515;BME280;27247;48.020;16.720;2023-11-21T04:56:37;99346.81;;;5.66;97.63
41515;BME280;27247;48.020;16.720;2023-11-21T05:00:48;99341.63;;;5.56;97.24
41515;BME280;27247;48.020;16.720;2023-11-21T05:04:58;99344.78;;;5.34;96.62
41515;BME280;27247;48.020;16.720;2023-11-21T05:09:08;99347.41;;;5.16;95.50
41515;BME280;27247;48.020;16.720;2023-11-21T05:13:22;99359.63;;;4.91;95.16
41515;BME280;27247;48.020;16.720;2023-11-21T05:17:37;99370.97;;;4.84;95.81
41515;BME280;27247;48.020;16.720;2023-11-21T05:21:51;99368.47;;;4.82;96.17
41515;BME280;27247;48.020;16.720;2023-11-21T05:26:01;99370.56;;;4.78;95.47
41515;BME280;27247;48.020;16.720;2023-11-21T05:30:13;99374.34;;;4.76;96.11
41515;BME280;27247;48.020;16.720;2023-11-21T05:34:24;99388.22;;;4.88;97.34
41515;BME280;27247;48.020;16.720;2023-11-21T05:38:35;99393.88;;;4.75;99.55
41515;BME280;27247;48.020;16.720;2023-11-21T05:42:46;99390.75;;;4.62;100.00
41515;BME280;27247;48.020;16.720;2023-11-21T05:46:56;99399.75;;;4.69;100.00
41515;BME280;27247;48.020;16.720;2023-11-21T05:51:08;99414.25;;;4.65;100.00
41515;BME280;27247;48.020;16.720;2023-11-21T05:55:19;99416.41;;;4.79;99.25
41515;BME280;27247;48.020;16.720;2023-11-21T05:59:31;99418.84;;;4.45;94.40
41515;BME280;27247;48.020;16.720;2023-11-21T06:03:42;99419.75;;;4.26;98.60
41515;BME280;27247;48.020;16.720;2023-11-21T06:07:55;99432.03;;;4.08;100.00
41515;BME280;27247;48.020;16.720;2023-11-21T06:12:08;99428.03;;;4.04;100.00
41515;BME280;27247;48.020;16.720;2023-11-21T06:16:19;99438.19;;;3.99;100.00
41515;BME280;27247;48.020;16.720;2023-11-21T06:20:29;99440.16;;;3.97;100.00
41515;BME280;27247;48.020;16.720;2023-11-21T06:24:39;99440.44;;;3.94;100.00
41515;BME280;27247;48.020;16.720;2023-11-21T06:28:52;99452.69;;;3.85;99.86
41515;BME280;27247;48.020;16.720;2023-11-21T06:33:03;99460.34;;;3.88;100.00
41515;BME280;27247;48.020;16.720;2023-11-21T06:37:14;99464.38;;;3.92;100.00
41515;BME280;27247;48.020;16.720;2023-11-21T06:41:24;99467.09;;;4.10;100.00
41515;BME280;27247;48.020;16.720;2023-11-21T06:45:34;99470.03;;;4.16;99.63
41515;BME280;27247;48.020;16.720;2023-11-21T06:49:45;99465.28;;;4.20;100.00
41515;BME280;27247;48.020;16.720;2023-11-21T06:53:58;99468.47;;;4.24;100.00
41515;BME280;27247;48.020;16.720;2023-11-21T06:58:08;99473.44;;;4.36;100.00
41515;BME280;27247;48.020;16.720;2023-11-21T07:02:18;99468.44;;;4.33;100.00
41515;BME280;27247;48.020;16.720;2023-11-21T07:06:29;99471.19;;;4.41;100.00
41515;BME280;27247;48.020;16.720;2023-11-21T07:10:39;99474.63;;;4.52;100.00
41515;BME280;27247;48.020;16.720;2023-11-21T07:14:49;99480.13;;;4.68;100.00
41515;BME280;27247;48.020;16.720;2023-11-21T07:19:00;99478.25;;;4.78;100.00
41515;BME280;27247;48.020;16.720;2023-11-21T07:23:10;99484.78;;;4.84;100.00
41515;BME280;27247;48.020;16.720;2023-11-21T07:27:21;99468.47;;;5.06;100.00
41515;BME280;27247;48.020;16.720;2023-11-21T07:31:31;99476.06;;;5.19;100.00
41515;BME280;27247;48.020;16.720;2023-11-21T07:35:44;99474.28;;;5.37;100.00
41515;BME280;27247;48.020;16.720;2023-11-21T07:39:54;99469.59;;;5.49;100.00
41515;BME280;27247;48.020;16.720;2023-11-21T07:44:07;99479.88;;;5.52;100.00
41515;BME280;27247;48.020;16.720;2023-11-21T07:48:18;99481.31;;;5.64;100.00
41515;BME280;27247;48.020;16.720;2023-11-21T07:52:28;99475.84;;;5.65;100.00
41515;BME280;27247;48.020;16.720;2023-11-21T07:56:38;99487.97;;;5.68;100.00
41515;BME280;27247;48.020;16.720;2023-11-21T08:00:49;99490.84;;;5.74;100.00
41515;BME280;27247;48.020;16.720;2023-11-21T08:05:00;99496.22;;;5.83;100.00
41515;BME280;27247;48.020;16.720;2023-11-21T08:09:10;99500.75;;;6.08;100.00
41515;BME280;27247;48.020;16.720;2023-11-21T08:13:23;99504.75;;;6.12;100.00
41515;BME280;27247;48.020;16.720;2023-11-21T08:17:34;99503.75;;;6.13;100.00
41515;BME280;27247;48.020;16.720;2023-11-21T08:21:45;99504.13;;;6.18;100.00
41515;BME280;27247;48.020;16.720;2023-11-21T08:25:55;99501.59;;;6.34;100.00
41515;BME280;27247;48.020;16.720;2023-11-21T08:30:06;99492.59;;;6.53;100.00
41515;BME280;27247;48.020;16.720;2023-11-21T08:34:17;99484.38;;;6.72;100.00
41515;BME280;27247;48.020;16.720;2023-11-21T08:38:28;99481.63;;;6.90;100.00
41515;BME280;27247;48.020;16.720;2023-11-21T08:42:39;99490.97;;;7.11;100.00
41515;BME280;27247;48.020;16.720;2023-11-21T08:46:49;99486.19;;;7.14;100.00
41515;BME280;27247;48.020;16.720;2023-11-21T08:51:00;99491.97;;;7.10;100.00
41515;BME280;27247;48.020;16.720;2023-11-21T08:55:10;99488.97;;;7.04;100.00
41515;BME280;27247;48.020;16.720;2023-11-21T08:59:24;99497.78;;;7.05;100.00
41515;BME280;27247;48.020;16.720;2023-11-21T09:03:35;99497.25;;;7.01;100.00
41515;BME280;27247;48.020;16.720;2023-11-21T09:07:45;99499.59;;;7.04;100.00
41515;BME280;27247;48.020;16.720;2023-11-21T09:11:56;99498.00;;;7.28;100.00
41515;BME280;27247;48.020;16.720;2023-11-21T09:16:06;99496.53;;;7.33;100.00
41515;BME280;27247;48.020;16.720;2023-11-21T09:20:17;99488.59;;;7.58;100.00
41515;BME280;27247;48.020;16.720;2023-11-21T09:24:27;99487.59;;;7.59;100.00
41515;BME280;27247;48.020;16.720;2023-11-21T09:28:38;99485.78;;;7.67;100.00
41515;BME280;27247;48.020;16.720;2023-11-21T09:32:49;99491.28;;;7.66;100.00
41515;BME280;27247;48.020;16.720;2023-11-21T09:37:00;99474.81;;;7.71;100.00
41515;BME280;27247;48.020;16.720;2023-11-21T09:41:32;99483.97;;;7.68;100.00
41515;BME280;27247;48.020;16.720;2023-11-21T09:45:46;99484.47;;;7.63;100.00
41515;BME280;27247;48.020;16.720;2023-11-21T09:50:01;99485.13;;;7.65;100.00
41515;BME280;27247;48.020;16.720;2023-11-21T09:54:12;99475.47;;;7.89;100.00
41515;BME280;27247;48.020;16.720;2023-11-21T09:58:26;99476.13;;;7.99;99.83
41515;BME280;27247;48.020;16.720;2023-11-21T10:02:38;99464.50;;;8.00;100.00
41515;BME280;27247;48.020;16.720;2023-11-21T10:06:51;99471.44;;;8.17;100.00
41515;BME280;27247;48.020;16.720;2023-11-21T10:11:05;99466.97;;;8.42;100.00
41515;BME280;27247;48.020;16.720;2023-11-21T10:15:17;99468.06;;;8.64;98.51
41515;BME280;27247;48.020;16.720;2023-11-21T10:19:28;99456.19;;;8.75;96.70
41515;BME280;27247;48.020;16.720;2023-11-21T10:23:39;99450.47;;;8.86;96.31
41515;BME280;27247;48.020;16.720;2023-11-21T10:27:49;99437.25;;;9.01;96.04
41515;BME280;27247;48.020;16.720;2023-11-21T10:32:03;99438.00;;;9.40;96.38
41515;BME280;27247;48.020;16.720;2023-11-21T10:36:13;99429.59;;;9.89;92.67
41515;BME280;27247;48.020;16.720;2023-11-21T10:40:37;99429.97;;;10.53;90.63
41515;BME280;27247;48.020;16.720;2023-11-21T10:44:49;99419.53;;;11.09;85.65
41515;BME280;27247;48.020;16.720;2023-11-21T10:48:59;99424.97;;;11.37;81.54
41515;BME280;27247;48.020;16.720;2023-11-21T10:53:10;99424.03;;;11.87;80.87
41515;BME280;27247;48.020;16.720;2023-11-21T10:57:23;99415.13;;;12.42;79.33
41515;BME280;27247;48.020;16.720;2023-11-21T11:01:33;99410.94;;;12.61;77.78
41515;BME280;27247;48.020;16.720;2023-11-21T11:05:44;99407.13;;;12.90;75.72
41515;BME280;27247;48.020;16.720;2023-11-21T11:10:01;99410.06;;;13.08;72.90
41515;BME280;27247;48.020;16.720;2023-11-21T11:14:15;99404.28;;;12.98;69.71
41515;BME280;27247;48.020;16.720;2023-11-21T11:18:28;99412.84;;;13.28;70.31
41515;BME280;27247;48.020;16.720;2023-11-21T11:22:44;99396.13;;;13.26;67.90
41515;BME280;27247;48.020;16.720;2023-11-21T11:27:15;99394.69;;;13.43;69.32
41515;BME280;27247;48.020;16.720;2023-11-21T11:31:43;99392.22;;;13.49;68.34
41515;BME280;27247;48.020;16.720;2023-11-21T11:40:12;99398.69;;;12.93;69.22
41515;BME280;27247;48.020;16.720;2023-11-21T11:49:04;99401.38;;;12.93;70.65
41515;BME280;27247;48.020;16.720;2023-11-21T11:53:15;99395.63;;;13.03;69.43
41515;BME280;27247;48.020;16.720;2023-11-21T11:57:26;99411.00;;;12.74;69.96
41515;BME280;27247;48.020;16.720;2023-11-21T12:01:46;99402.56;;;12.43;70.80
41515;BME280;27247;48.020;16.720;2023-11-21T12:05:57;99416.00;;;12.15;71.64
41515;BME280;27247;48.020;16.720;2023-11-21T12:10:11;99415.03;;;11.95;72.93
41515;BME280;27247;48.020;16.720;2023-11-21T12:14:22;99415.69;;;11.75;73.70
41515;BME280;27247;48.020;16.720;2023-11-21T12:18:33;99409.72;;;11.52;75.47
41515;BME280;27247;48.020;16.720;2023-11-21T12:22:45;99408.84;;;11.09;76.94
41515;BME280;27247;48.020;16.720;2023-11-21T12:26:57;99408.25;;;10.92;78.44
41515;BME280;27247;48.020;16.720;2023-11-21T12:31:08;99419.34;;;10.74;79.05
41515;BME280;27247;48.020;16.720;2023-11-21T12:35:21;99421.13;;;10.67;79.99
41515;BME280;27247;48.020;16.720;2023-11-21T12:39:31;99430.34;;;10.65;80.73
41515;BME280;27247;48.020;16.720;2023-11-21T12:43:43;99423.06;;;10.59;81.45
41515;BME280;27247;48.020;16.720;2023-11-21T12:47:58;99425.53;;;10.60;82.11
41515;BME280;27247;48.020;16.720;2023-11-21T12:52:10;99422.03;;;10.60;81.82
41515;BME280;27247;48.020;16.720;2023-11-21T12:56:22;99423.44;;;10.55;80.48
41515;BME280;27247;48.020;16.720;2023-11-21T13:00:55;99421.13;;;10.52;80.08
41515;BME280;27247;48.020;16.720;2023-11-21T13:05:07;99416.34;;;10.48;80.53
41515;BME280;27247;48.020;16.720;2023-11-21T13:09:22;99421.22;;;10.44;80.71
41515;BME280;27247;48.020;16.720;2023-11-21T13:13:33;99419.81;;;10.34;80.42
41515;BME280;27247;48.020;16.720;2023-11-21T13:17:44;99413.56;;;10.27;80.49
41515;BME280;27247;48.020;16.720;2023-11-21T13:21:55;99413.09;;;10.23;80.63
41515;BME280;27247;48.020;16.720;2023-11-21T13:26:05;99411.13;;;10.17;80.38
41515;BME280;27247;48.020;16.720;2023-11-21T13:30:16;99410.84;;;10.12;81.08
41515;BME280;27247;48.020;16.720;2023-11-21T13:34:27;99421.06;;;10.08;81.36
41515;BME280;27247;48.020;16.720;2023-11-21T13:38:37;99417.00;;;10.12;81.76
41515;BME280;27247;48.020;16.720;2023-11-21T13:42:55;99427.03;;;10.10;82.58
41515;BME280;27247;48.020;16.720;2023-11-21T13:47:09;99423.09;;;10.06;82.75
41515;BME280;27247;48.020;16.720;2023-11-21T13:51:20;99420.78;;;10.03;82.68
41515;BME280;27247;48.020;16.720;2023-11-21T13:55:34;99426.31;;;10.02;83.22
41515;BME280;27247;48.020;16.720;2023-11-21T13:59:46;99432.00;;;9.99;83.44
41515;BME280;27247;48.020;16.720;2023-11-21T14:04:03;99425.28;;;10.03;84.09
41515;BME280;27247;48.020;16.720;2023-11-21T14:08:26;99433.31;;;10.03;85.20
41515;BME280;27247;48.020;16.720;2023-11-21T14:12:38;99430.81;;;10.01;85.53
41515;BME280;27247;48.020;16.720;2023-11-21T14:16:51;99429.81;;;10.02;86.58
41515;BME280;27247;48.020;16.720;2023-11-21T14:21:02;99435.88;;;9.96;86.49
41515;BME280;27247;48.020;16.720;2023-11-21T14:25:12;99440.00;;;9.99;85.85
41515;BME280;27247;48.020;16.720;2023-11-21T14:29:24;99443.50;;;9.99;85.44
41515;BME280;27247;48.020;16.720;2023-11-21T14:33:34;99445.53;;;9.97;85.31
41515;BME280;27247;48.020;16.720;2023-11-21T14:37:45;99449.47;;;9.86;85.82
41515;BME280;27247;48.020;16.720;2023-11-21T14:41:57;99438.75;;;9.72;86.96
41515;BME280;27247;48.020;16.720;2023-11-21T14:46:08;99449.44;;;9.49;88.78
41515;BME280;27247;48.020;16.720;2023-11-21T14:50:20;99446.38;;;9.37;88.37
41515;BME280;27247;48.020;16.720;2023-11-21T14:54:50;99453.91;;;9.25;88.80
41515;BME280;27247;48.020;16.720;2023-11-21T14:59:10;99453.59;;;9.20;88.79
41515;BME280;27247;48.020;16.720;2023-11-21T15:03:29;99458.63;;;9.15;89.47
41515;BME280;27247;48.020;16.720;2023-11-21T15:07:42;99461.53;;;9.06;89.99
41515;BME280;27247;48.020;16.720;2023-11-21T15:11:54;99473.28;;;8.88;90.83
41515;BME280;27247;48.020;16.720;2023-11-21T15:16:10;99467.47;;;8.85;91.04
41515;BME280;27247;48.020;16.720;2023-11-21T15:20:22;99468.69;;;8.74;90.96
41515;BME280;27247;48.020;16.720;2023-11-21T15:24:32;99472.38;;;8.65;91.37
41515;BME280;27247;48.020;16.720;2023-11-21T15:28:43;99473.56;;;8.54;91.66
41515;BME280;27247;48.020;16.720;2023-11-21T15:32:53;99475.75;;;8.51;91.63
41515;BME280;27247;48.020;16.720;2023-11-21T15:37:05;99485.91;;;8.31;91.13
41515;BME280;27247;48.020;16.720;2023-11-21T15:41:18;99492.41;;;8.20;91.20
41515;BME280;27247;48.020;16.720;2023-11-21T15:45:28;99491.59;;;8.04;90.71
41515;BME280;27247;48.020;16.720;2023-11-21T15:49:38;99488.78;;;7.89;91.37
41515;BME280;27247;48.020;16.720;2023-11-21T15:53:49;99492.94;;;7.75;91.72
41515;BME280;27247;48.020;16.720;2023-11-21T15:57:59;99503.91;;;7.72;92.33
41515;BME280;27247;48.020;16.720;2023-11-21T16:02:13;99510.38;;;7.69;94.97
41515;BME280;27247;48.020;16.720;2023-11-21T16:06:27;99508.88;;;7.67;96.43
41515;BME280;27247;48.020;16.720;2023-11-21T16:10:37;99519.34;;;7.60;97.84
41515;BME280;27247;48.020;16.720;2023-11-21T16:14:48;99523.16;;;7.58;97.66
41515;BME280;27247;48.020;16.720;2023-11-21T16:18:59;99533.31;;;7.54;97.64
41515;BME280;27247;48.020;16.720;2023-11-21T16:23:09;99526.47;;;7.52;97.46
41515;BME280;27247;48.020;16.720;2023-11-21T16:27:20;99538.28;;;7.49;97.06
41515;BME280;27247;48.020;16.720;2023-11-21T16:31:30;99545.06;;;7.35;97.89
41515;BME280;27247;48.020;16.720;2023-11-21T16:35:43;99546.38;;;7.31;98.17
41515;BME280;27247;48.020;16.720;2023-11-21T16:39:53;99547.00;;;7.25;99.42
41515;BME280;27247;48.020;16.720;2023-11-21T16:44:04;99551.28;;;7.18;99.27
41515;BME280;27247;48.020;16.720;2023-11-21T16:48:15;99562.53;;;7.04;99.55
41515;BME280;27247;48.020;16.720;2023-11-21T16:52:25;99566.66;;;6.98;99.97
41515;BME280;27247;48.020;16.720;2023-11-21T16:56:36;99573.56;;;6.83;100.00
41515;BME280;27247;48.020;16.720;2023-11-21T17:00:47;99582.25;;;6.93;99.04
41515;BME280;27247;48.020;16.720;2023-11-21T17:04:57;99580.53;;;6.84;100.00
41515;BME280;27247;48.020;16.720;2023-11-21T17:09:08;99589.84;;;6.88;100.00
41515;BME280;27247;48.020;16.720;2023-11-21T17:13:22;99590.56;;;6.98;100.00
41515;BME280;27247;48.020;16.720;2023-11-21T17:17:32;99597.38;;;7.01;100.00
41515;BME280;27247;48.020;16.720;2023-11-21T17:21:43;99608.28;;;6.90;100.00
41515;BME280;27247;48.020;16.720;2023-11-21T17:25:55;99597.97;;;6.87;100.00
41515;BME280;27247;48.020;16.720;2023-11-21T17:30:06;99603.28;;;6.61;100.00
41515;BME280;27247;48.020;16.720;2023-11-21T17:34:17;99595.47;;;6.59;100.00
41515;BME280;27247;48.020;16.720;2023-11-21T17:38:29;99602.19;;;6.71;100.00
41515;BME280;27247;48.020;16.720;2023-11-21T17:42:40;99596.09;;;6.79;100.00
41515;BME280;27247;48.020;16.720;2023-11-21T17:46:51;99591.34;;;6.91;100.00
41515;BME280;27247;48.020;16.720;2023-11-21T17:51:01;99596.03;;;6.97;100.00
41515;BME280;27247;48.020;16.720;2023-11-21T17:55:13;99600.50;;;6.96;100.00
41515;BME280;27247;48.020;16.720;2023-11-21T17:59:24;99594.69;;;6.93;100.00
41515;BME280;27247;48.020;16.720;2023-11-21T18:03:38;99593.38;;;6.97;100.00
41515;BME280;27247;48.020;16.720;2023-11-21T18:07:51;99598.88;;;7.03;100.00
41515;BME280;27247;48.020;16.720;2023-11-21T18:12:02;99608.53;;;7.04;100.00
41515;BME280;27247;48.020;16.720;2023-11-21T18:16:14;99613.69;;;7.06;100.00
41515;BME280;27247;48.020;16.720;2023-11-21T18:20:24;99616.03;;;7.09;100.00
41515;BME280;27247;48.020;16.720;2023-11-21T18:24:35;99611.03;;;7.06;100.00
41515;BME280;27247;48.020;16.720;2023-11-21T18:28:46;99619.97;;;7.05;100.00
41515;BME280;27247;48.020;16.720;2023-11-21T18:32:57;99615.34;;;7.07;100.00
41515;BME280;27247;48.020;16.720;2023-11-21T18:37:07;99624.97;;;7.08;100.00
41515;BME280;27247;48.020;16.720;2023-11-21T18:41:21;99626.13;;;7.05;100.00
41515;BME280;27247;48.020;16.720;2023-11-21T18:45:32;99628.09;;;7.03;100.00
41515;BME280;27247;48.020;16.720;2023-11-21T18:49:44;99631.59;;;7.04;100.00
41515;BME280;27247;48.020;16.720;2023-11-21T18:53:56;99623.28;;;6.99;100.00
41515;BME280;27247;48.020;16.720;2023-11-21T18:58:06;99630.75;;;7.03;100.00
41515;BME280;27247;48.020;16.720;2023-11-21T19:02:16;99623.63;;;7.04;100.00
41515;BME280;27247;48.020;16.720;2023-11-21T19:06:28;99631.44;;;7.05;100.00
41515;BME280;27247;48.020;16.720;2023-11-21T19:10:39;99623.81;;;7.11;100.00
41515;BME280;27247;48.020;16.720;2023-11-21T19:14:51;99632.94;;;7.08;100.00
41515;BME280;27247;48.020;16.720;2023-11-21T19:19:01;99632.31;;;7.14;100.00
41515;BME280;27247;48.020;16.720;2023-11-21T19:23:12;99641.44;;;7.12;100.00
41515;BME280;27247;48.020;16.720;2023-11-21T19:27:23;99635.81;;;7.15;100.00
41515;BME280;27247;48.020;16.720;2023-11-21T19:31:34;99642.44;;;7.11;100.00
41515;BME280;27247;48.020;16.720;2023-11-21T19:35:44;99636.75;;;7.05;100.00
41515;BME280;27247;48.020;16.720;2023-11-21T19:39:55;99643.25;;;7.11;100.00
41515;BME280;27247;48.020;16.720;2023-11-21T19:44:06;99640.72;;;7.01;100.00
41515;BME280;27247;48.020;16.720;2023-11-21T19:48:16;99662.34;;;7.07;100.00
41515;BME280;27247;48.020;16.720;2023-11-21T19:52:29;99662.13;;;7.00;100.00
41515;BME280;27247;48.020;16.720;2023-11-21T19:56:39;99671.09;;;6.73;100.00
41515;BME280;27247;48.020;16.720;2023-11-21T20:00:51;99674.03;;;6.70;100.00
41515;BME280;27247;48.020;16.720;2023-11-21T20:05:01;99682.91;;;6.79;100.00
41515;BME280;27247;48.020;16.720;2023-11-21T20:09:11;99676.50;;;6.89;100.00
41515;BME280;27247;48.020;16.720;2023-11-21T20:13:22;99684.78;;;6.86;100.00
41515;BME280;27247;48.020;16.720;2023-11-21T20:17:32;99696.75;;;6.90;100.00
41515;BME280;27247;48.020;16.720;2023-11-21T20:21:42;99690.81;;;6.96;100.00
41515;BME280;27247;48.020;16.720;2023-11-21T20:25:53;99684.88;;;6.77;100.00
41515;BME280;27247;48.020;16.720;2023-11-21T20:30:08;99687.00;;;6.73;100.00
41515;BME280;27247;48.020;16.720;2023-11-21T20:34:18;99695.81;;;6.73;100.00
41515;BME280;27247;48.020;16.720;2023-11-21T20:38:29;99702.91;;;6.47;100.00
41515;BME280;27247;48.020;16.720;2023-11-21T20:42:40;99716.41;;;6.36;100.00
41515;BME280;27247;48.020;16.720;2023-11-21T20:46:53;99714.00;;;6.15;100.00
41515;BME280;27247;48.020;16.720;2023-11-21T20:51:03;99712.34;;;6.14;100.00
41515;BME280;27247;48.020;16.720;2023-11-21T20:55:14;99705.91;;;6.17;100.00
41515;BME280;27247;48.020;16.720;2023-11-21T20:59:25;99706.06;;;6.15;100.00
41515;BME280;27247;48.020;16.720;2023-11-21T21:03:35;99710.66;;;5.95;100.00
41515;BME280;27247;48.020;16.720;2023-11-21T21:07:45;99718.16;;;6.00;100.00
41515;BME280;27247;48.020;16.720;2023-11-21T21:11:55;99726.81;;;6.20;100.00
41515;BME280;27247;48.020;16.720;2023-11-21T21:16:07;99734.44;;;6.32;100.00
41515;BME280;27247;48.020;16.720;2023-11-21T21:20:17;99737.63;;;6.36;100.00
41515;BME280;27247;48.020;16.720;2023-11-21T21:24:28;99728.97;;;6.52;100.00
41515;BME280;27247;48.020;16.720;2023-11-21T21:28:38;99737.31;;;6.57;100.00
41515;BME280;27247;48.020;16.720;2023-11-21T21:32:50;99745.38;;;6.65;100.00
41515;BME280;27247;48.020;16.720;2023-11-21T21:37:01;99738.00;;;6.59;100.00
41515;BME280;27247;48.020;16.720;2023-11-21T21:41:11;99756.00;;;6.20;100.00
41515;BME280;27247;48.020;16.720;2023-11-21T21:45:21;99744.53;;;6.29;100.00
41515;BME280;27247;48.020;16.720;2023-11-21T21:49:32;99756.13;;;6.28;100.00
41515;BME280;27247;48.020;16.720;2023-11-21T21:53:43;99748.34;;;6.17;100.00
41515;BME280;27247;48.020;16.720;2023-11-21T21:57:54;99755.28;;;6.27;100.00
41515;BME280;27247;48.020;16.720;2023-11-21T22:02:05;99761.06;;;6.40;100.00
41515;BME280;27247;48.020;16.720;2023-11-21T22:06:15;99772.91;;;6.46;100.00
41515;BME280;27247;48.020;16.720;2023-11-21T22:10:26;99750.59;;;6.57;100.00